Time;durP1;ratioP1;P1;durP2;ratioP2;P2;SDS_P1;SDS_P2;PMS_P1;PMS_P2;Temp;Humidity;BMP_temperature;BMP_pressure;BME280_temperature;BME280_humidity;BME280_pressure;Samples;Min_cycle;Max_cycle;Signal;HPM_P1;HPM_P2
2023/10/31 00:00:20;;;;;;;;;;;20.10;93.60;;;;;;6278654;22;42674;-76
2023/10/31 00:02:45;;;;;;;;;;;20.00;93.30;;;;;;6280047;22;43534;-75
2023/10/31 00:05:11;;;;;;;;;;;20.10;93.30;;;;;;6278279;22;42826;-75
2023/10/31 00:07:36;;;;;;;;;;;20.20;93.60;;;;;;6278421;22;43375;-75
2023/10/31 00:10:02;;;;;;;;;;;20.20;93.60;;;;;;6278592;22;42863;-76
2023/10/31 00:12:28;;;;;;;;;;;20.10;93.30;;;;;;6278107;22;42778;-75
2023/10/31 00:14:53;;;;;;;;;;;20.00;93.50;;;;;;6279825;22;42887;-75
2023/10/31 00:17:19;;;;;;;;;;;20.00;93.30;;;;;;6280615;22;43483;-76
2023/10/31 00:19:44;;;;;;;;;;;20.10;93.50;;;;;;6277937;22;43145;-75
2023/10/31 00:22:10;;;;;;;;;;;20.00;93.30;;;;;;6277763;22;42683;-75
2023/10/31 00:24:35;;;;;;;;;;;20.00;93.50;;;;;;6278045;22;42759;-75
2023/10/31 00:27:01;;;;;;;;;;;20.00;93.60;;;;;;6277862;22;43480;-76
2023/10/31 00:29:27;;;;;;;;;;;20.10;93.60;;;;;;6278651;22;42959;-75
2023/10/31 00:31:52;;;;;;;;;;;19.90;93.10;;;;;;6278274;22;43315;-75
2023/10/31 00:34:18;;;;;;;;;;;19.80;93.60;;;;;;6277622;22;42918;-75
2023/10/31 00:36:43;;;;;;;;;;;20.00;93.40;;;;;;6276815;22;43628;-75
2023/10/31 00:39:09;;;;;;;;;;;20.20;93.50;;;;;;6276024;22;42979;-76
2023/10/31 00:41:35;;;;;;;;;;;20.10;93.40;;;;;;6278089;22;42810;-75
2023/10/31 00:44:00;;;;;;;;;;;19.90;93.60;;;;;;6277907;22;42898;-75
2023/10/31 00:46:26;;;;;;;;;;;20.00;93.40;;;;;;6278083;22;42820;-76
2023/10/31 00:48:51;;;;;;;;;;;20.00;93.60;;;;;;6277527;22;43146;-75
2023/10/31 00:51:17;;;;;;;;;;;20.00;93.70;;;;;;6278558;22;43557;-75
2023/10/31 00:53:42;;;;;;;;;;;20.10;93.70;;;;;;6278524;22;42821;-75
2023/10/31 00:56:08;;;;;;;;;;;20.00;93.40;;;;;;6278370;22;42782;-76
2023/10/31 00:58:33;;;;;;;;;;;20.00;93.40;;;;;;6277895;22;42981;-75
2023/10/31 01:00:59;;;;;;;;;;;20.00;93.50;;;;;;6277639;22;43483;-75
2023/10/31 01:03:25;;;;;;;;;;;20.00;93.50;;;;;;6250823;22;43106;-76
2023/10/31 01:05:50;;;;;;;;;;;20.10;93.50;;;;;;6287824;22;43409;-75
2023/10/31 01:08:16;;;;;;;;;;;20.00;93.50;;;;;;6292462;22;42857;-75
2023/10/31 01:10:41;;;;;;;;;;;20.20;93.30;;;;;;6258814;22;44194;-75
2023/10/31 01:13:07;;;;;;;;;;;19.90;93.50;;;;;;6280904;22;42825;-76
2023/10/31 01:15:32;;;;;;;;;;;20.00;93.40;;;;;;6279163;22;43378;-76
2023/10/31 01:17:58;;;;;;;;;;;19.90;93.30;;;;;;6278361;22;43137;-75
2023/10/31 01:20:24;;;;;;;;;;;20.00;93.40;;;;;;6278871;22;42896;-76
2023/10/31 01:22:49;;;;;;;;;;;20.10;93.40;;;;;;6277999;22;42858;-79
2023/10/31 01:25:15;;;;;;;;;;;20.00;93.30;;;;;;6277456;22;42825;-76
2023/10/31 01:27:41;;;;;;;;;;;20.00;93.10;;;;;;6277233;22;43199;-75
2023/10/31 01:30:07;;;;;;;;;;;19.90;93.10;;;;;;6276724;22;43796;-75
2023/10/31 01:32:33;;;;;;;;;;;20.10;93.20;;;;;;6277522;22;42863;-75
2023/10/31 01:34:58;;;;;;;;;;;20.00;93.30;;;;;;6276898;22;43611;-77
2023/10/31 01:37:24;;;;;;;;;;;20.00;93.30;;;;;;6277618;22;42941;-74
2023/10/31 01:39:49;;;;;;;;;;;20.00;93.30;;;;;;6277585;22;42839;-75
2023/10/31 01:42:15;;;;;;;;;;;19.90;93.30;;;;;;6277292;22;42786;-74
2023/10/31 01:44:41;;;;;;;;;;;20.10;93.10;;;;;;6276962;22;43248;-75
2023/10/31 01:47:06;;;;;;;;;;;20.10;93.20;;;;;;6277959;22;43033;-75
2023/10/31 01:49:32;;;;;;;;;;;20.00;93.20;;;;;;6277684;22;42873;-75
2023/10/31 01:51:59;;;;;;;;;;;20.10;93.30;;;;;;6277380;22;42968;-74
2023/10/31 01:54:25;;;;;;;;;;;20.00;93.10;;;;;;6276878;22;42950;-74
2023/10/31 01:56:54;;;;;;;;;;;20.00;92.90;;;;;;6277826;22;43170;-76
2023/10/31 01:59:19;;;;;;;;;;;19.90;92.80;;;;;;6277206;22;42747;-75
2023/10/31 02:01:45;;;;;;;;;;;20.00;93.00;;;;;;6277178;22;42884;-75
2023/10/31 02:04:10;;;;;;;;;;;20.00;93.10;;;;;;6277745;22;42872;-75
2023/10/31 02:06:36;;;;;;;;;;;20.00;93.10;;;;;;6277402;22;42787;-75
2023/10/31 02:09:01;;;;;;;;;;;20.10;93.10;;;;;;6277523;22;42950;-75
2023/10/31 02:11:27;;;;;;;;;;;20.00;93.00;;;;;;6277284;22;42790;-78
2023/10/31 02:13:52;;;;;;;;;;;20.10;93.00;;;;;;6276571;22;42946;-75
2023/10/31 02:16:18;;;;;;;;;;;20.10;93.00;;;;;;6277522;22;42827;-76
2023/10/31 02:18:43;;;;;;;;;;;20.00;93.00;;;;;;6277583;22;42655;-76
2023/10/31 02:21:09;;;;;;;;;;;20.10;93.00;;;;;;6277551;22;43601;-78
2023/10/31 02:23:35;;;;;;;;;;;20.00;92.90;;;;;;6250046;22;43641;-75
2023/10/31 02:26:00;;;;;;;;;;;20.10;92.80;;;;;;6277603;22;42925;-75
2023/10/31 02:28:28;;;;;;;;;;;20.00;92.90;;;;;;6277531;22;43871;-76
2023/10/31 02:30:54;;;;;;;;;;;20.00;92.30;;;;;;6278308;22;42890;-75
2023/10/31 02:33:20;;;;;;;;;;;20.10;92.70;;;;;;6277606;22;43361;-78
2023/10/31 02:35:46;;;;;;;;;;;20.10;92.70;;;;;;6277248;22;42763;-76
2023/10/31 02:38:11;;;;;;;;;;;20.00;92.90;;;;;;6277304;22;43850;-75
2023/10/31 02:40:37;;;;;;;;;;;20.00;92.60;;;;;;6277278;22;42814;-75
2023/10/31 02:43:02;;;;;;;;;;;20.00;92.80;;;;;;6277428;22;42815;-76
2023/10/31 02:45:28;;;;;;;;;;;19.90;92.80;;;;;;6276940;22;42918;-76
2023/10/31 02:47:53;;;;;;;;;;;20.10;92.90;;;;;;6276767;22;43110;-76
2023/10/31 02:50:19;;;;;;;;;;;20.00;92.80;;;;;;6277319;22;42807;-75
2023/10/31 02:52:44;;;;;;;;;;;20.10;92.80;;;;;;6277247;22;42900;-75
2023/10/31 02:55:10;;;;;;;;;;;20.00;92.80;;;;;;6277607;22;42741;-74
2023/10/31 02:57:35;;;;;;;;;;;20.10;92.60;;;;;;6277925;22;43088;-75
2023/10/31 03:00:01;;;;;;;;;;;20.00;92.50;;;;;;6277732;22;42878;-74
2023/10/31 03:02:27;;;;;;;;;;;20.10;92.80;;;;;;6275671;22;43448;-74
2023/10/31 03:04:52;;;;;;;;;;;20.10;92.60;;;;;;6276449;22;43457;-75
2023/10/31 03:07:19;;;;;;;;;;;20.00;92.80;;;;;;6276293;22;42913;-74
2023/10/31 03:09:44;;;;;;;;;;;19.90;91.90;;;;;;6275771;22;42991;-74
2023/10/31 03:12:10;;;;;;;;;;;20.10;92.80;;;;;;6277109;22;43702;-75
2023/10/31 03:14:35;;;;;;;;;;;20.00;92.70;;;;;;6278331;22;42816;-75
2023/10/31 03:17:01;;;;;;;;;;;20.10;92.50;;;;;;6278236;22;44073;-75
2023/10/31 03:19:26;;;;;;;;;;;20.00;92.70;;;;;;6277723;22;43133;-75
2023/10/31 03:21:52;;;;;;;;;;;19.90;92.40;;;;;;6279764;22;42846;-74
2023/10/31 03:24:17;;;;;;;;;;;20.10;92.50;;;;;;6278524;22;42789;-74
2023/10/31 03:26:43;;;;;;;;;;;20.00;92.70;;;;;;6278582;22;42988;-74
2023/10/31 03:29:09;;;;;;;;;;;20.00;92.60;;;;;;6277706;22;42921;-75
2023/10/31 03:31:34;;;;;;;;;;;20.00;92.40;;;;;;6278972;22;42892;-74
2023/10/31 03:34:00;;;;;;;;;;;19.80;92.50;;;;;;6291202;22;42783;-75
2023/10/31 03:36:25;;;;;;;;;;;20.00;92.70;;;;;;6294412;22;43158;-75
2023/10/31 03:38:51;;;;;;;;;;;20.40;92.70;;;;;;6278581;22;42884;-75
2023/10/31 03:41:16;;;;;;;;;;;20.00;92.50;;;;;;6280195;22;42787;-74
2023/10/31 03:43:42;;;;;;;;;;;20.00;92.50;;;;;;6279156;22;42794;-74
2023/10/31 03:46:07;;;;;;;;;;;20.10;92.60;;;;;;6278476;22;42861;-74
2023/10/31 03:48:33;;;;;;;;;;;20.10;92.60;;;;;;6279152;22;42977;-75
2023/10/31 03:50:59;;;;;;;;;;;20.20;92.60;;;;;;6278334;22;42836;-75
2023/10/31 03:53:24;;;;;;;;;;;20.10;92.60;;;;;;6251539;22;42950;-75
2023/10/31 03:55:50;;;;;;;;;;;20.10;92.60;;;;;;6278269;22;43728;-75
2023/10/31 03:58:15;;;;;;;;;;;20.10;92.60;;;;;;6277644;22;42839;-74
2023/10/31 04:00:41;;;;;;;;;;;20.10;92.30;;;;;;6277951;22;42958;-75
2023/10/31 04:03:07;;;;;;;;;;;20.00;92.50;;;;;;6250932;22;43048;-75
2023/10/31 04:05:32;;;;;;;;;;;20.00;92.50;;;;;;6278186;22;43545;-74
2023/10/31 04:07:59;;;;;;;;;;;20.10;92.30;;;;;;6278226;22;42888;-75
2023/10/31 04:10:25;;;;;;;;;;;20.00;92.50;;;;;;6277459;22;43471;-76
2023/10/31 04:12:50;;;;;;;;;;;20.00;92.50;;;;;;6277949;22;43050;-74
2023/10/31 04:15:16;;;;;;;;;;;20.10;92.50;;;;;;6277667;22;42858;-74
2023/10/31 04:17:41;;;;;;;;;;;20.10;92.30;;;;;;6277754;22;42772;-75
2023/10/31 04:20:10;;;;;;;;;;;20.10;92.30;;;;;;6277992;22;43550;-78
2023/10/31 04:22:36;;;;;;;;;;;20.10;91.70;;;;;;6251285;22;42984;-74
2023/10/31 04:25:02;;;;;;;;;;;20.00;92.40;;;;;;6251405;22;44167;-76
2023/10/31 04:27:27;;;;;;;;;;;20.00;92.20;;;;;;6278103;22;42812;-77
2023/10/31 04:29:53;;;;;;;;;;;19.90;92.40;;;;;;6277164;22;43433;-76
2023/10/31 04:32:19;;;;;;;;;;;20.00;92.20;;;;;;6276611;22;42761;-75
2023/10/31 04:34:44;;;;;;;;;;;20.10;92.50;;;;;;6276810;22;43765;-76
2023/10/31 04:37:10;;;;;;;;;;;20.00;92.40;;;;;;6277351;22;42988;-75
2023/10/31 04:39:35;;;;;;;;;;;20.10;92.40;;;;;;6277065;22;43094;-76
2023/10/31 04:42:01;;;;;;;;;;;20.00;92.40;;;;;;6277737;22;43007;-75
2023/10/31 04:44:26;;;;;;;;;;;20.10;92.40;;;;;;6277431;22;42827;-76
2023/10/31 04:46:52;;;;;;;;;;;20.10;92.40;;;;;;6250302;22;43034;-76
2023/10/31 04:49:17;;;;;;;;;;;20.10;92.40;;;;;;6276951;22;43527;-75
2023/10/31 04:51:43;;;;;;;;;;;19.90;92.20;;;;;;6277087;22;42942;-76
2023/10/31 04:54:09;;;;;;;;;;;20.00;92.30;;;;;;6276268;22;43254;-76
2023/10/31 04:56:34;;;;;;;;;;;20.10;92.40;;;;;;6277840;22;42847;-75
2023/10/31 04:59:00;;;;;;;;;;;20.10;92.10;;;;;;6278338;22;42946;-78
2023/10/31 05:01:25;;;;;;;;;;;20.10;92.40;;;;;;6277995;22;42795;-76
2023/10/31 05:03:52;;;;;;;;;;;19.90;92.10;;;;;;6276730;22;43432;-75
2023/10/31 05:06:20;;;;;;;;;;;19.90;92.30;;;;;;6250244;22;42963;-76
2023/10/31 05:08:46;;;;;;;;;;;20.30;91.60;;;;;;6276771;22;43371;-76
2023/10/31 05:11:12;;;;;;;;;;;20.10;92.20;;;;;;6277712;22;42958;-76
2023/10/31 05:13:40;;;;;;;;;;;20.00;92.50;;;;;;6277521;22;42813;-77
2023/10/31 05:16:06;;;;;;;;;;;20.10;92.40;;;;;;6277440;22;42818;-75
2023/10/31 05:18:31;;;;;;;;;;;20.00;92.30;;;;;;6276791;22;42799;-75
2023/10/31 05:20:57;;;;;;;;;;;20.10;92.50;;;;;;6277459;22;42965;-76
2023/10/31 05:23:22;;;;;;;;;;;20.10;92.50;;;;;;6277608;22;42818;-76
2023/10/31 05:25:48;;;;;;;;;;;20.10;92.60;;;;;;6276659;22;42901;-75
2023/10/31 05:28:13;;;;;;;;;;;20.10;92.50;;;;;;6249658;22;42912;-75
2023/10/31 05:30:39;;;;;;;;;;;20.00;92.50;;;;;;6277281;22;42829;-75
2023/10/31 05:33:04;;;;;;;;;;;20.10;92.50;;;;;;6276005;22;42717;-75
2023/10/31 05:35:30;;;;;;;;;;;20.20;92.30;;;;;;6277049;22;42930;-76
2023/10/31 05:37:55;;;;;;;;;;;20.10;92.20;;;;;;6276978;22;43503;-76
2023/10/31 05:40:24;;;;;;;;;;;20.00;92.50;;;;;;6277503;22;42793;-75
2023/10/31 05:42:50;;;;;;;;;;;20.10;92.40;;;;;;6276539;22;42905;-75
2023/10/31 05:45:15;;;;;;;;;;;20.20;92.50;;;;;;6277242;22;42889;-76
2023/10/31 05:47:41;;;;;;;;;;;20.00;92.40;;;;;;6276846;22;42921;-79
2023/10/31 05:50:07;;;;;;;;;;;20.20;92.70;;;;;;6277634;22;42992;-76
2023/10/31 05:52:32;;;;;;;;;;;19.90;92.00;;;;;;6276897;22;43544;-76
2023/10/31 05:54:58;;;;;;;;;;;20.20;92.40;;;;;;6277214;22;42890;-75
2023/10/31 05:57:23;;;;;;;;;;;20.10;92.20;;;;;;6276129;22;43295;-76
2023/10/31 05:59:49;;;;;;;;;;;20.20;92.30;;;;;;6249509;22;42983;-76
2023/10/31 06:02:14;;;;;;;;;;;20.10;92.20;;;;;;6278398;22;43521;-75
2023/10/31 06:04:40;;;;;;;;;;;20.00;92.50;;;;;;6280197;22;42890;-75
2023/10/31 06:07:06;;;;;;;;;;;20.10;92.50;;;;;;6252595;22;44354;-75
2023/10/31 06:09:33;;;;;;;;;;;20.10;92.50;;;;;;6277940;22;42894;-75
2023/10/31 06:11:59;;;;;;;;;;;20.10;92.60;;;;;;6277970;22;43366;-76
2023/10/31 06:14:25;;;;;;;;;;;20.30;92.70;;;;;;6276893;22;43002;-76
2023/10/31 06:16:51;;;;;;;;;;;20.10;92.50;;;;;;6277366;22;43754;-75
2023/10/31 06:19:17;;;;;;;;;;;20.10;92.70;;;;;;6276961;22;42907;-77
2023/10/31 06:21:42;;;;;;;;;;;20.10;92.80;;;;;;6275759;22;42957;-75
2023/10/31 06:24:08;;;;;;;;;;;20.00;92.80;;;;;;6276612;22;42807;-76
2023/10/31 06:26:33;;;;;;;;;;;20.10;92.50;;;;;;6276217;22;43949;-76
2023/10/31 06:28:59;;;;;;;;;;;19.90;92.70;;;;;;6276014;22;42891;-76
2023/10/31 06:31:24;;;;;;;;;;;20.10;92.50;;;;;;6276780;22;43678;-75
2023/10/31 06:33:50;;;;;;;;;;;20.00;92.70;;;;;;6277150;22;43004;-76
2023/10/31 06:36:15;;;;;;;;;;;20.10;92.70;;;;;;6276949;22;43230;-75
2023/10/31 06:38:41;;;;;;;;;;;20.10;92.80;;;;;;6277059;22;42954;-81
2023/10/31 06:41:07;;;;;;;;;;;20.00;92.90;;;;;;6277176;22;42885;-77
2023/10/31 06:43:32;;;;;;;;;;;20.00;93.00;;;;;;6278076;22;42886;-80
2023/10/31 06:46:00;;;;;;;;;;;20.20;93.10;;;;;;6277618;22;43458;-76
2023/10/31 06:48:26;;;;;;;;;;;20.00;93.20;;;;;;6276506;22;42750;-75
2023/10/31 06:50:51;;;;;;;;;;;20.00;92.90;;;;;;6276956;22;43407;-75
2023/10/31 06:53:17;;;;;;;;;;;19.90;91.40;;;;;;6276854;22;42985;-74
2023/10/31 06:55:42;;;;;;;;;;;20.20;91.60;;;;;;6275463;22;42883;-76
2023/10/31 06:58:08;;;;;;;;;;;20.10;91.60;;;;;;6277060;22;42940;-75
2023/10/31 07:00:33;;;;;;;;;;;19.80;91.70;;;;;;6276577;22;43038;-75
2023/10/31 07:03:04;;;;;;;;;;;20.00;91.70;;;;;;6277149;22;43004;-75
2023/10/31 07:05:30;;;;;;;;;;;19.90;91.70;;;;;;6275816;22;43247;-75
2023/10/31 07:07:56;;;;;;;;;;;20.10;91.60;;;;;;6276724;22;42925;-76
2023/10/31 07:10:21;;;;;;;;;;;20.00;91.80;;;;;;6276115;22;42939;-76
2023/10/31 07:12:47;;;;;;;;;;;20.00;91.60;;;;;;6276229;22;42890;-75
2023/10/31 07:15:12;;;;;;;;;;;20.00;91.90;;;;;;6276911;22;42929;-75
2023/10/31 07:17:38;;;;;;;;;;;20.10;91.70;;;;;;6275745;22;42874;-76
2023/10/31 07:20:04;;;;;;;;;;;20.00;91.90;;;;;;6275832;22;43560;-75
2023/10/31 07:22:30;;;;;;;;;;;20.10;92.20;;;;;;6276085;22;42886;-75
2023/10/31 07:24:56;;;;;;;;;;;20.10;92.30;;;;;;6276979;22;43641;-75
2023/10/31 07:27:22;;;;;;;;;;;19.90;91.80;;;;;;6276424;22;42826;-76
2023/10/31 07:29:48;;;;;;;;;;;20.00;91.80;;;;;;6276167;22;42748;-75
2023/10/31 07:32:14;;;;;;;;;;;20.00;91.30;;;;;;6276743;22;42826;-75
2023/10/31 07:34:42;;;;;;;;;;;20.00;91.10;;;;;;6276208;22;43249;-76
2023/10/31 07:37:08;;;;;;;;;;;19.80;90.00;;;;;;6276248;22;42831;-76
2023/10/31 07:39:33;;;;;;;;;;;20.00;90.40;;;;;;6275051;22;43510;-76
2023/10/31 07:41:59;;;;;;;;;;;20.00;90.10;;;;;;6276663;22;42956;-76
2023/10/31 07:44:24;;;;;;;;;;;19.90;88.50;;;;;;6276373;22;43584;-78
2023/10/31 07:46:50;;;;;;;;;;;19.90;88.30;;;;;;6275845;22;42902;-75
2023/10/31 07:49:15;;;;;;;;;;;19.90;86.70;;;;;;6275862;22;43494;-77
2023/10/31 07:51:42;;;;;;;;;;;19.70;85.70;;;;;;6276208;22;42869;-75
2023/10/31 07:54:09;;;;;;;;;;;19.60;85.60;;;;;;6276492;22;42871;-76
2023/10/31 07:56:36;;;;;;;;;;;19.60;85.10;;;;;;6278454;22;42830;-77
2023/10/31 07:59:01;;;;;;;;;;;19.50;84.60;;;;;;6275500;22;43507;-74
2023/10/31 08:01:27;;;;;;;;;;;19.60;85.80;;;;;;6276797;22;42998;-78
2023/10/31 08:03:53;;;;;;;;;;;19.60;85.60;;;;;;6276687;22;43241;-79
2023/10/31 08:06:19;;;;;;;;;;;19.80;86.40;;;;;;6278445;22;42918;-76
2023/10/31 08:08:48;;;;;;;;;;;20.00;87.00;;;;;;6272384;22;42931;-78
2023/10/31 08:11:13;;;;;;;;;;;19.60;84.00;;;;;;6275816;22;43046;-78
2023/10/31 08:13:39;;;;;;;;;;;19.60;85.80;;;;;;6276233;22;42944;-76
2023/10/31 08:16:05;;;;;;;;;;;19.90;86.40;;;;;;6277742;22;42762;-75
2023/10/31 08:18:31;;;;;;;;;;;19.60;85.70;;;;;;6277470;22;42844;-75
2023/10/31 08:20:56;;;;;;;;;;;19.70;86.50;;;;;;6276464;22;42966;-76
2023/10/31 08:23:22;;;;;;;;;;;19.60;86.30;;;;;;6277681;22;42997;-77
2023/10/31 08:25:48;;;;;;;;;;;19.70;86.20;;;;;;6278417;22;42894;-80
2023/10/31 08:28:13;;;;;;;;;;;19.70;85.40;;;;;;6276266;22;43428;-76
2023/10/31 08:30:39;;;;;;;;;;;19.80;80.70;;;;;;6276948;22;42861;-79
2023/10/31 08:33:04;;;;;;;;;;;19.70;80.50;;;;;;6278765;22;44528;-75
2023/10/31 08:35:30;;;;;;;;;;;19.80;80.20;;;;;;6282416;22;42827;-75
2023/10/31 08:37:55;;;;;;;;;;;19.80;80.00;;;;;;6278858;22;43444;-75
2023/10/31 08:40:21;;;;;;;;;;;19.80;80.20;;;;;;6279125;22;42854;-75
2023/10/31 08:42:46;;;;;;;;;;;19.80;79.90;;;;;;6278205;22;43478;-78
2023/10/31 08:45:12;;;;;;;;;;;19.80;80.20;;;;;;6278250;22;42831;-76
2023/10/31 08:47:37;;;;;;;;;;;19.80;80.10;;;;;;6277373;22;43374;-75
2023/10/31 08:50:03;;;;;;;;;;;19.80;80.50;;;;;;6277723;22;42862;-75
2023/10/31 08:52:29;;;;;;;;;;;19.70;80.00;;;;;;6277472;22;42921;-75
2023/10/31 08:54:54;;;;;;;;;;;19.70;79.20;;;;;;6278122;22;42858;-74
2023/10/31 08:57:20;;;;;;;;;;;19.80;78.80;;;;;;6277376;22;43022;-77
2023/10/31 08:59:45;;;;;;;;;;;19.90;79.20;;;;;;6276485;22;42881;-78
2023/10/31 09:02:11;;;;;;;;;;;19.60;78.40;;;;;;6276683;22;43829;-78
2023/10/31 09:04:36;;;;;;;;;;;19.80;79.40;;;;;;6276783;22;43134;-78
2023/10/31 09:07:02;;;;;;;;;;;19.60;78.70;;;;;;6277062;22;42740;-78
2023/10/31 09:09:27;;;;;;;;;;;19.90;79.10;;;;;;6277439;22;42911;-79
2023/10/31 09:11:53;;;;;;;;;;;20.00;78.40;;;;;;6276584;22;42820;-79
2023/10/31 09:14:18;;;;;;;;;;;20.00;78.10;;;;;;6278180;22;43030;-78
2023/10/31 09:16:44;;;;;;;;;;;20.50;77.90;;;;;;6277817;22;43528;-78
2023/10/31 09:19:09;;;;;;;;;;;19.80;77.80;;;;;;6277366;22;42878;-78
2023/10/31 09:21:35;;;;;;;;;;;19.80;78.60;;;;;;6277458;22;43560;-78
2023/10/31 09:24:01;;;;;;;;;;;19.90;78.10;;;;;;6277832;22;42818;-78
2023/10/31 09:26:26;;;;;;;;;;;19.60;77.80;;;;;;6277704;22;43504;-78
2023/10/31 09:28:52;;;;;;;;;;;19.70;77.80;;;;;;6278253;22;42828;-77
2023/10/31 09:31:17;;;;;;;;;;;19.80;77.80;;;;;;6278179;22;43976;-77
2023/10/31 09:33:43;;;;;;;;;;;19.60;77.60;;;;;;6278096;22;43036;-78
2023/10/31 09:36:09;;;;;;;;;;;19.90;78.10;;;;;;6278519;22;43355;-78
2023/10/31 09:38:34;;;;;;;;;;;20.00;78.10;;;;;;6278029;22;43528;-78
2023/10/31 09:41:00;;;;;;;;;;;19.80;78.00;;;;;;6277125;22;42721;-78
2023/10/31 09:43:25;;;;;;;;;;;19.70;78.90;;;;;;6278156;22;42775;-77
2023/10/31 09:45:51;;;;;;;;;;;19.80;78.50;;;;;;6277491;22;43011;-77
2023/10/31 09:48:18;;;;;;;;;;;19.80;78.30;;;;;;6277571;22;42906;-77
2023/10/31 09:50:44;;;;;;;;;;;19.90;78.20;;;;;;6277674;22;43462;-77
2023/10/31 09:53:10;;;;;;;;;;;19.80;78.20;;;;;;6277292;22;42706;-78
2023/10/31 09:55:36;;;;;;;;;;;19.70;78.00;;;;;;6277462;22;42850;-78
2023/10/31 09:58:02;;;;;;;;;;;19.80;78.00;;;;;;6276384;22;43115;-78
2023/10/31 10:00:27;;;;;;;;;;;19.70;77.70;;;;;;6277705;22;42918;-77
2023/10/31 10:02:54;;;;;;;;;;;19.70;77.40;;;;;;6277465;22;42795;-78
2023/10/31 10:05:20;;;;;;;;;;;19.70;77.60;;;;;;6276166;22;43241;-78
2023/10/31 10:07:46;;;;;;;;;;;19.70;77.40;;;;;;6277486;22;42813;-78
2023/10/31 10:10:12;;;;;;;;;;;19.40;77.60;;;;;;6276419;22;43541;-78
2023/10/31 10:12:37;;;;;;;;;;;19.60;77.60;;;;;;6276688;22;42819;-78
2023/10/31 10:15:03;;;;;;;;;;;19.70;77.80;;;;;;6276082;22;42863;-78
2023/10/31 10:17:29;;;;;;;;;;;19.80;77.60;;;;;;6277273;22;42718;-78
2023/10/31 10:20:09;;;;;;;;;;;19.70;78.10;;;;;;6277877;22;42882;-79
2023/10/31 10:22:39;;;;;;;;;;;19.60;76.50;;;;;;6277778;22;42914;-78
2023/10/31 10:25:06;;;;;;;;;;;19.70;76.70;;;;;;6277981;22;43972;-78
2023/10/31 10:27:31;;;;;;;;;;;19.80;78.00;;;;;;6277569;22;42882;-78
2023/10/31 10:29:57;;;;;;;;;;;19.70;77.30;;;;;;6277093;22;42898;-78
2023/10/31 10:32:22;;;;;;;;;;;19.60;77.60;;;;;;6277203;22;42833;-77
2023/10/31 10:34:48;;;;;;;;;;;19.30;77.60;;;;;;6276460;22;43492;-78
2023/10/31 10:37:13;;;;;;;;;;;19.60;78.30;;;;;;6277715;22;42901;-78
2023/10/31 10:39:39;;;;;;;;;;;19.50;78.30;;;;;;6276726;22;42926;-79
2023/10/31 10:42:09;;;;;;;;;;;19.40;75.50;;;;;;6277136;22;42785;-78
2023/10/31 10:44:35;;;;;;;;;;;19.50;75.10;;;;;;6277167;22;42893;-78
2023/10/31 10:47:04;;;;;;;;;;;19.50;73.80;;;;;;6277321;22;42985;-78
2023/10/31 10:49:32;;;;;;;;;;;19.60;73.10;;;;;;6276276;22;42816;-78
2023/10/31 10:52:02;;;;;;;;;;;19.40;72.90;;;;;;6276927;22;42764;-78
2023/10/31 10:54:45;;;;;;;;;;;19.70;72.30;;;;;;6281684;22;42860;-78
2023/10/31 10:57:15;;;;;;;;;;;19.40;70.50;;;;;;6288617;22;42858;-76
2023/10/31 10:59:42;;;;;;;;;;;19.70;70.10;;;;;;6290093;22;43986;-78
2023/10/31 11:02:08;;;;;;;;;;;19.20;71.20;;;;;;6284651;22;42948;-78
2023/10/31 11:04:33;;;;;;;;;;;19.40;71.40;;;;;;6277764;22;43275;-78
2023/10/31 11:06:59;;;;;;;;;;;19.30;71.80;;;;;;6277205;22;42973;-78
2023/10/31 11:09:25;;;;;;;;;;;19.30;70.90;;;;;;6277722;22;43784;-78
2023/10/31 11:11:52;;;;;;;;;;;19.30;69.20;;;;;;6277210;22;42810;-78
2023/10/31 11:14:19;;;;;;;;;;;19.40;69.90;;;;;;6276015;22;43522;-78
2023/10/31 11:16:47;;;;;;;;;;;19.20;68.50;;;;;;6276833;22;42973;-77
2023/10/31 11:19:13;;;;;;;;;;;19.00;69.00;;;;;;6277363;22;42736;-79
2023/10/31 11:21:52;;;;;;;;;;;19.30;68.90;;;;;;6277415;22;42765;-78
2023/10/31 11:24:18;;;;;;;;;;;19.20;69.50;;;;;;6276672;22;42878;-78
2023/10/31 11:26:50;;;;;;;;;;;19.20;68.60;;;;;;6276224;22;42897;-77
2023/10/31 11:29:17;;;;;;;;;;;19.20;67.40;;;;;;6276114;22;42782;-78
2023/10/31 11:31:42;;;;;;;;;;;19.10;66.40;;;;;;6276942;22;42885;-77
2023/10/31 11:34:08;;;;;;;;;;;19.30;66.00;;;;;;6276209;22;44076;-79
2023/10/31 11:36:35;;;;;;;;;;;19.00;65.40;;;;;;6277520;22;42843;-78
2023/10/31 11:39:28;;;;;;;;;;;19.00;65.00;;;;;;6277296;22;42958;-78
2023/10/31 11:41:54;;;;;;;;;;;19.00;63.40;;;;;;6278916;22;42882;-78
2023/10/31 11:44:22;;;;;;;;;;;19.00;64.10;;;;;;6277592;22;43202;-77
2023/10/31 11:46:51;;;;;;;;;;;19.10;64.30;;;;;;6278401;22;42960;-78
2023/10/31 11:49:17;;;;;;;;;;;19.20;64.60;;;;;;6277297;22;43930;-78
2023/10/31 11:51:45;;;;;;;;;;;19.10;64.70;;;;;;6277769;22;42918;-78
2023/10/31 11:54:12;;;;;;;;;;;19.10;65.10;;;;;;6277027;22;42868;-78
2023/10/31 11:56:38;;;;;;;;;;;19.10;65.30;;;;;;6278229;22;42922;-78
2023/10/31 11:59:06;;;;;;;;;;;19.10;65.20;;;;;;6277808;22;42878;-78
2023/10/31 12:01:32;;;;;;;;;;;19.30;65.40;;;;;;6278330;22;42819;-77
2023/10/31 12:03:57;;;;;;;;;;;19.20;65.40;;;;;;6277303;22;43780;-78
2023/10/31 12:06:23;;;;;;;;;;;19.10;64.10;;;;;;6277876;22;42935;-78
2023/10/31 12:08:49;;;;;;;;;;;19.20;64.70;;;;;;6276862;22;43538;-78
2023/10/31 12:11:20;;;;;;;;;;;19.00;64.40;;;;;;6277863;22;42908;-78
2023/10/31 12:13:54;;;;;;;;;;;19.30;65.00;;;;;;6277828;22;42906;-78
2023/10/31 12:16:22;;;;;;;;;;;19.10;62.80;;;;;;6278618;22;43035;-78
2023/10/31 12:18:53;;;;;;;;;;;19.40;65.00;;;;;;6251280;22;43641;-77
2023/10/31 12:21:19;;;;;;;;;;;19.30;64.70;;;;;;6251115;22;42681;-78
2023/10/31 12:23:45;;;;;;;;;;;19.20;63.30;;;;;;6277971;22;42904;-79
2023/10/31 12:26:10;;;;;;;;;;;19.10;63.70;;;;;;6251199;22;42954;-78
2023/10/31 12:28:38;;;;;;;;;;;19.20;62.10;;;;;;6277738;22;42847;-78
2023/10/31 12:31:03;;;;;;;;;;;19.30;62.90;;;;;;6278833;22;42846;-78
2023/10/31 12:33:29;;;;;;;;;;;19.20;62.90;;;;;;6277828;22;43712;-77
2023/10/31 12:35:58;;;;;;;;;;;19.40;62.90;;;;;;6278036;22;43359;-77
2023/10/31 12:38:24;;;;;;;;;;;19.20;60.60;;;;;;6278636;22;43512;-77
2023/10/31 12:40:50;;;;;;;;;;;19.20;63.10;;;;;;6278585;22;42899;-77
2023/10/31 12:43:16;;;;;;;;;;;19.30;63.30;;;;;;6277942;22;42856;-77
2023/10/31 12:45:41;;;;;;;;;;;19.20;62.40;;;;;;6277497;22;42756;-78
2023/10/31 12:48:08;;;;;;;;;;;19.20;61.80;;;;;;6277461;22;42862;-78
2023/10/31 12:50:37;;;;;;;;;;;19.30;61.60;;;;;;6278443;22;43102;-78
2023/10/31 12:53:03;;;;;;;;;;;19.40;61.80;;;;;;6278077;22;42767;-78
2023/10/31 12:55:29;;;;;;;;;;;19.30;62.00;;;;;;6278119;22;42946;-78
2023/10/31 12:57:55;;;;;;;;;;;19.30;61.60;;;;;;6277565;22;42906;-78
2023/10/31 13:00:24;;;;;;;;;;;19.20;61.50;;;;;;6277686;22;42861;-78
2023/10/31 13:02:59;;;;;;;;;;;19.40;61.80;;;;;;6277153;22;42966;-78
2023/10/31 13:05:26;;;;;;;;;;;19.30;59.90;;;;;;6278098;22;43046;-78
2023/10/31 13:07:52;;;;;;;;;;;19.40;62.00;;;;;;6277785;22;43088;-77
2023/10/31 13:10:20;;;;;;;;;;;19.40;62.20;;;;;;6277059;22;42982;-78
2023/10/31 13:17:57;;;;;;;;;;;19.60;60.80;;;;;;6280219;22;43505;-78
2023/10/31 13:20:23;;;;;;;;;;;19.50;61.80;;;;;;6286688;22;42841;-77
2023/10/31 13:22:48;;;;;;;;;;;19.50;62.40;;;;;;6280984;22;42750;-78
2023/10/31 13:25:14;;;;;;;;;;;19.70;62.20;;;;;;6250468;22;43040;-78
2023/10/31 15:09:49;;;;;;;;;;;19.50;62.60;;;;;;6331541;22;43810;-78
2023/10/31 15:12:14;;;;;;;;;;;19.40;64.20;;;;;;6308398;22;42770;-78
2023/10/31 15:14:40;;;;;;;;;;;19.30;64.80;;;;;;6308383;22;42932;-79
2023/10/31 15:17:05;;;;;;;;;;;19.40;65.40;;;;;;6308122;22;43630;-79
2023/10/31 15:19:31;;;;;;;;;;;19.60;65.40;;;;;;6308020;22;42947;-79
2023/10/31 15:21:56;;;;;;;;;;;19.50;65.60;;;;;;6308235;22;43413;-79
2023/10/31 15:24:22;;;;;;;;;;;19.40;66.00;;;;;;6307921;22;43037;-79
2023/10/31 15:26:47;;;;;;;;;;;19.50;66.30;;;;;;6308430;22;43666;-79
2023/10/31 15:29:13;;;;;;;;;;;19.60;66.70;;;;;;6308054;22;42794;-79
2023/10/31 15:31:42;;;;;;;;;;;19.50;66.90;;;;;;6308471;22;43631;-79
2023/10/31 15:34:08;;;;;;;;;;;19.30;68.10;;;;;;6308041;22;42741;-79
2023/10/31 15:39:10;;;;;;;;;;;19.50;65.80;;;;;;6267419;22;43024;-79
2023/10/31 15:41:36;;;;;;;;;;;19.50;67.10;;;;;;6286842;22;42695;-78
2023/10/31 15:44:01;;;;;;;;;;;19.70;67.90;;;;;;6282346;22;42702;-79
2023/10/31 15:46:27;;;;;;;;;;;19.50;68.20;;;;;;6277243;22;42964;-80
2023/10/31 15:48:52;;;;;;;;;;;19.50;67.90;;;;;;6276525;22;42907;-79
2023/10/31 15:51:18;;;;;;;;;;;19.50;69.00;;;;;;6276519;22;43763;-80
2023/10/31 15:53:43;;;;;;;;;;;19.40;69.60;;;;;;6276106;22;42906;-79
2023/10/31 15:56:09;;;;;;;;;;;19.50;68.70;;;;;;6274703;22;43014;-79
2023/10/31 15:58:35;;;;;;;;;;;19.40;68.90;;;;;;6276705;22;42987;-79